Time;durP1;ratioP1;P1;durP2;ratioP2;P2;SDS_P1;SDS_P2;PMS_P1;PMS_P2;Temp;Humidity;BMP_temperature;BMP_pressure;BME280_temperature;BME280_humidity;BME280_pressure;Samples;Min_cycle;Max_cycle;Signal;HPM_P1;HPM_P2
2022/08/17 18:29:51;;;;;;;7.87;6.70;;;;;;;29.00;44.68;98166.03;1812930;79;25492;-61
2022/08/17 18:32:34;;;;;;;9.98;7.22;;;;;;;28.81;45.49;98173.44;1784407;80;25400;-60
2022/08/17 18:35:26;;;;;;;8.30;7.10;;;;;;;28.60;45.75;98167.86;1784366;80;27391;-60
2022/08/17 18:37:52;;;;;;;13.60;8.15;;;;;;;28.45;45.89;98168.30;1783536;80;25783;-60
2022/08/17 18:40:30;;;;;;;11.28;7.37;;;;;;;28.29;46.29;98168.52;1784830;80;25737;-61
2022/08/17 18:43:26;;;;;;;8.20;7.30;;;;;;;28.17;46.55;98172.90;1770809;80;25685;-60
2022/08/17 18:45:56;;;;;;;11.73;7.42;;;;;;;28.07;46.74;98178.22;1714337;83;25664;-59
2022/08/17 18:48:38;;;;;;;16.17;7.97;;;;;;;27.97;47.12;98177.91;1714526;83;26465;-59
2022/08/17 18:51:37;;;;;;;10.30;7.67;;;;;;;27.80;47.46;98176.53;1713163;83;25692;-59
2022/08/17 18:54:23;;;;;;;11.15;8.18;;;;;;;27.61;47.90;98172.59;1726890;83;25542;-60
2022/08/17 18:57:00;;;;;;;11.03;7.83;;;;;;;27.54;47.97;98182.81;1726853;83;27215;-60
2022/08/17 18:59:32;;;;;;;10.00;7.47;;;;;;;27.47;48.54;98185.81;1727031;83;25515;-60
2022/08/17 19:02:19;;;;;;;10.80;7.78;;;;;;;27.38;48.99;98182.83;1726448;83;27419;-60
2022/08/17 19:05:09;;;;;;;11.33;7.25;;;;;;;27.27;49.48;98197.16;1727094;83;25685;-59
2022/08/17 19:07:43;;;;;;;12.25;7.58;;;;;;;27.10;49.80;98201.38;1727130;83;25515;-60
2022/08/17 19:10:30;;;;;;;11.18;7.58;;;;;;;26.96;49.92;98204.48;1727193;83;25675;-61
2022/08/17 19:13:10;;;;;;;9.15;7.62;;;;;;;26.86;50.00;98207.73;1727070;83;25780;-60
2022/08/17 19:15:51;;;;;;;11.00;7.92;;;;;;;26.79;50.27;98210.87;1726965;83;27545;-60
2022/08/17 19:18:31;;;;;;;15.28;8.60;;;;;;;26.72;50.36;98217.27;1726906;83;25482;-60
2022/08/17 19:21:12;;;;;;;12.80;8.63;;;;;;;26.59;51.14;98211.55;1704912;82;25739;-60
2022/08/17 19:24:18;;;;;;;11.30;8.53;;;;;;;26.46;51.20;98210.80;1727658;82;25505;-62
2022/08/17 19:26:53;;;;;;;14.23;8.88;;;;;;;26.41;51.44;98212.09;1752685;81;25567;-59
2022/08/17 19:29:40;;;;;;;15.63;9.25;;;;;;;26.19;52.56;98208.28;1752940;81;27416;-60
2022/08/17 19:32:10;;;;;;;15.68;9.48;;;;;;;26.06;53.02;98212.36;1752593;81;25828;-63
2022/08/17 19:34:39;;;;;;;16.48;9.83;;;;;;;25.99;53.05;98202.66;1752998;81;25685;-61
2022/08/17 19:37:26;;;;;;;16.48;9.05;;;;;;;25.97;53.65;98207.92;1753061;81;25611;-61
2022/08/17 19:40:20;;;;;;;11.22;8.90;;;;;;;25.93;53.64;98203.77;1752892;81;25406;-62
2022/08/17 19:43:04;;;;;;;12.30;9.00;;;;;;;25.90;54.20;98207.44;1751719;81;27475;-61
2022/08/17 19:45:40;;;;;;;13.20;9.30;;;;;;;25.75;54.60;98211.72;1752824;80;25630;-61
2022/08/17 19:48:24;;;;;;;11.35;9.23;;;;;;;25.62;54.71;98219.35;1750273;81;25611;-61
2022/08/17 19:51:05;;;;;;;14.25;10.32;;;;;;;25.59;55.32;98216.59;1751107;81;26016;-60
2022/08/17 19:54:01;;;;;;;14.35;11.48;;;;;;;25.53;54.80;98217.08;1753110;81;25595;-61
2022/08/17 19:56:36;;;;;;;17.92;11.93;;;;;;;25.53;55.17;98214.27;1760874;80;27415;-60
2022/08/17 19:59:14;;;;;;;13.43;11.65;;;;;;;25.42;55.62;98218.66;1783372;80;25654;-61
2022/08/17 20:02:10;;;;;;;15.63;11.90;;;;;;;25.38;55.49;98223.54;1783501;80;25675;-61
2022/08/17 20:04:41;;;;;;;17.52;11.55;;;;;;;25.37;55.81;98224.77;1699180;83;25775;-61
2022/08/17 20:07:18;;;;;;;14.63;11.30;;;;;;;25.35;56.51;98224.98;1699257;84;25534;-60
2022/08/17 20:09:50;;;;;;;14.05;11.38;;;;;;;25.26;56.35;98226.34;1699414;84;27420;-61
2022/08/17 20:12:28;;;;;;;13.28;10.75;;;;;;;25.24;56.75;98223.16;1698940;84;25846;-61
2022/08/17 20:15:08;;;;;;;13.25;10.78;;;;;;;25.23;58.03;98224.98;1699741;84;25534;-60
2022/08/17 20:17:40;;;;;;;14.93;11.40;;;;;;;25.15;58.13;98221.49;1699222;84;26281;-61
2022/08/17 20:20:27;;;;;;;13.28;10.95;;;;;;;25.09;59.00;98215.58;1699649;84;25521;-60
2022/08/17 20:23:07;;;;;;;17.35;11.48;;;;;;;25.06;59.78;98213.02;1699664;84;27383;-60
2022/08/17 20:26:13;;;;;;;12.50;11.18;;;;;;;25.01;59.69;98213.49;1698332;84;25655;-60
2022/08/17 20:29:01;;;;;;;14.05;10.75;;;;;;;24.97;60.81;98214.76;1706154;83;25736;-60
2022/08/17 20:31:51;;;;;;;12.95;10.85;;;;;;;24.87;61.22;98214.46;1724779;83;25504;-60
2022/08/17 20:34:31;;;;;;;15.55;11.33;;;;;;;24.80;61.71;98213.97;1700708;83;25641;-61
2022/08/17 20:37:15;;;;;;;12.90;11.63;;;;;;;24.77;62.60;98208.41;1724830;83;27480;-60
2022/08/17 20:39:53;;;;;;;13.50;11.20;;;;;;;24.72;61.82;98208.27;1772896;80;25908;-60
2022/08/17 20:42:26;;;;;;;15.00;11.60;;;;;;;24.68;62.24;98199.94;1786618;80;25431;-61
2022/08/17 20:45:24;;;;;;;11.78;10.58;;;;;;;24.67;62.42;98198.33;1786760;80;25610;-60
2022/08/17 20:48:15;;;;;;;13.20;11.38;;;;;;;24.66;63.04;98199.55;1787179;80;25699;-61
2022/08/17 20:50:50;;;;;;;16.90;11.48;;;;;;;24.66;63.29;98193.95;1787152;80;27357;-61
2022/08/17 20:53:55;;;;;;;13.13;11.78;;;;;;;24.63;63.13;98196.79;1770868;80;25433;-62
2022/08/17 20:56:45;;;;;;;13.45;11.38;;;;;;;24.63;63.35;98200.99;1685221;84;25822;-61
2022/08/17 20:59:27;;;;;;;13.45;11.70;;;;;;;24.56;63.45;98204.70;1697263;83;25766;-62
2022/08/17 21:02:09;;;;;;;14.20;12.07;;;;;;;24.54;63.42;98208.52;1693960;84;25530;-61
2022/08/17 21:04:53;;;;;;;17.27;12.23;;;;;;;24.52;63.33;98208.16;1693761;84;28077;-62
2022/08/17 21:07:37;;;;;;;13.98;12.33;;;;;;;24.50;63.74;98203.58;1694119;84;25508;-61
2022/08/17 21:10:18;;;;;;;13.32;11.93;;;;;;;24.45;63.76;98209.03;1694725;84;25499;-62
2022/08/17 21:13:14;;;;;;;15.48;12.15;;;;;;;24.36;64.14;98208.75;1670810;84;25605;-59
2022/08/17 21:16:11;;;;;;;14.50;11.95;;;;;;;24.29;64.56;98208.22;1694467;84;25734;-59
2022/08/17 21:19:14;;;;;;;13.75;11.53;;;;;;;24.22;64.90;98206.91;1694375;84;27797;-61
2022/08/17 21:22:16;;;;;;;14.90;12.23;;;;;;;24.18;64.91;98203.55;1627170;88;25694;-59
2022/08/17 21:24:57;;;;;;;14.43;11.88;;;;;;;24.18;65.25;98201.38;1623046;88;25515;-58
2022/08/17 21:27:46;;;;;;;14.98;11.83;;;;;;;24.13;65.09;98196.19;1626135;88;25491;-59
2022/08/17 21:30:24;;;;;;;15.28;12.75;;;;;;;24.10;66.06;98196.43;1639329;86;25666;-59
2022/08/17 21:33:18;;;;;;;15.45;12.28;;;;;;;24.09;65.83;98194.05;1653286;86;27397;-58
2022/08/17 21:36:10;;;;;;;15.03;12.33;;;;;;;23.99;66.24;98188.15;1655530;86;26010;-59
2022/08/17 21:38:51;;;;;;;13.98;12.47;;;;;;;23.93;66.92;98187.83;1655706;86;25776;-61
2022/08/17 21:41:32;;;;;;;14.50;12.33;;;;;;;23.88;67.13;98186.87;1655720;86;25708;-60
2022/08/17 21:44:20;;;;;;;14.50;12.50;;;;;;;23.81;67.50;98189.75;1655412;86;25564;-60
2022/08/17 21:46:50;;;;;;;16.65;12.43;;;;;;;23.77;67.50;98181.38;1679426;85;28020;-61
2022/08/17 21:49:21;;;;;;;14.50;12.33;;;;;;;23.76;68.25;98177.59;1683905;85;25451;-62
2022/08/17 21:51:54;;;;;;;16.35;12.73;;;;;;;23.78;67.81;98166.17;1683980;85;25648;-60
2022/08/17 21:54:30;;;;;;;15.40;13.35;;;;;;;23.77;67.89;98167.39;1660561;85;26108;-60
2022/08/17 21:57:00;;;;;;;20.10;15.90;;;;;;;23.74;68.11;98167.42;1684010;84;25658;-61
2022/08/17 21:59:34;;;;;;;22.45;17.95;;;;;;;23.76;68.71;98171.41;1684232;85;27663;-61
2022/08/17 22:02:36;;;;;;;22.00;17.60;;;;;;;23.75;68.14;98174.63;1615199;88;25687;-60
2022/08/17 22:05:10;;;;;;;17.10;14.53;;;;;;;23.78;67.97;98171.77;1640905;87;25522;-60
2022/08/17 22:07:45;;;;;;;18.35;13.83;;;;;;;23.77;68.20;98175.78;1641162;87;25668;-60
2022/08/17 22:10:38;;;;;;;15.35;12.65;;;;;;;23.78;68.05;98175.97;1640001;87;25443;-60
2022/08/17 22:13:22;;;;;;;16.17;12.68;;;;;;;23.72;68.64;98172.66;1640893;87;27396;-59
2022/08/17 22:16:09;;;;;;;16.20;12.18;;;;;;;23.62;68.92;98170.95;1586993;90;25817;-60
2022/08/17 22:18:37;;;;;;;14.50;11.38;;;;;;;23.57;69.22;98167.19;1586833;90;25741;-60
2022/08/17 22:21:06;;;;;;;13.85;12.45;;;;;;;23.50;69.72;98165.87;1585435;90;25793;-61
2022/08/17 22:26:26;;;;;;;13.65;12.25;;;;;;;23.39;70.02;98158.38;1584932;90;25736;-60
2022/08/17 22:28:56;;;;;;;14.38;12.07;;;;;;;23.36;70.96;98157.78;1584880;90;26129;-60
2022/08/17 22:31:28;;;;;;;;;;;;;;;23.32;70.37;98155.63;1587315;90;25532;-60
2022/08/17 22:34:03;;;;;;;15.60;12.73;;;;;;;23.29;70.92;98157.23;1585157;90;25514;-60
2022/08/17 22:36:35;;;;;;;14.60;12.55;;;;;;;23.31;70.21;98162.41;1566094;91;25727;-60
2022/08/17 22:39:10;;;;;;;16.73;12.80;;;;;;;23.33;70.00;98165.59;1589595;90;27410;-61
2022/08/17 22:41:51;;;;;;;14.68;12.93;;;;;;;23.33;70.24;98169.78;1592846;89;25861;-60
2022/08/17 22:44:36;;;;;;;14.95;13.45;;;;;;;23.35;69.89;98172.17;1589651;90;25708;-60
2022/08/17 22:47:17;;;;;;;17.37;13.08;;;;;;;23.38;70.20;98179.77;1589307;90;26553;-60
2022/08/17 22:49:53;;;;;;;17.62;12.93;;;;;;;23.38;70.44;98183.36;1589362;90;25722;-60
2022/08/17 22:52:30;;;;;;;15.85;13.40;;;;;;;23.36;70.31;98196.92;1605360;87;26000;-60
2022/08/17 23:00:45;;;;;;;19.00;13.28;;;;;;;23.30;70.31;98205.55;1648626;87;25593;-60
2022/08/17 23:03:18;;;;;;;17.65;13.35;;;;;;;23.32;70.37;98211.53;1648909;87;25644;-61
2022/08/17 23:06:10;;;;;;;16.65;13.85;;;;;;;23.33;70.49;98220.11;1649006;87;28432;-60
2022/08/17 23:08:53;;;;;;;16.75;13.75;;;;;;;23.33;70.71;98215.11;1648649;87;25544;-60
2022/08/17 23:11:16;;;;;;;16.45;14.70;;;;;;;23.35;70.48;98219.10;1647774;87;25535;-60
2022/08/17 23:13:43;;;;;;;16.65;14.10;;;;;;;23.37;70.28;98220.09;1648750;87;25756;-60
2022/08/17 23:16:10;;;;;;;18.35;14.03;;;;;;;23.35;70.44;98215.50;1648868;87;25716;-61
2022/08/17 23:18:36;;;;;;;16.70;14.03;;;;;;;23.30;70.71;98213.94;1648714;87;27415;-60
2022/08/17 23:21:06;;;;;;;16.85;14.43;;;;;;;23.25;70.87;98215.17;1642364;86;25573;-60
2022/08/17 23:23:33;;;;;;;18.12;14.33;;;;;;;23.16;71.46;98217.04;1637109;87;25733;-60
2022/08/17 23:26:01;;;;;;;17.15;15.25;;;;;;;23.05;71.44;98214.31;1637096;87;25621;-60
2022/08/17 23:28:27;;;;;;;17.67;14.47;;;;;;;23.02;71.69;98211.53;1637403;87;25665;-60
2022/08/17 23:30:54;;;;;;;18.55;14.83;;;;;;;22.98;72.01;98216.36;1636983;87;27502;-60
2022/08/17 23:33:30;;;;;;;18.85;14.07;;;;;;;22.96;72.32;98217.36;1637225;87;25705;-60
2022/08/17 23:36:00;;;;;;;17.27;15.13;;;;;;;22.93;72.65;98221.19;1637440;87;25644;-60
2022/08/17 23:38:27;;;;;;;18.00;15.25;;;;;;;22.84;72.36;98225.63;1637025;87;26316;-61
2022/08/17 23:40:58;;;;;;;18.67;15.70;;;;;;;22.82;72.65;98224.63;1636966;87;25451;-61
2022/08/17 23:43:26;;;;;;;16.10;14.40;;;;;;;22.79;73.10;98212.88;1637449;87;27386;-60
2022/08/17 23:45:54;;;;;;;16.97;15.05;;;;;;;22.71;73.33;98225.31;1636917;87;25678;-61
2022/08/17 23:48:22;;;;;;;18.60;15.05;;;;;;;22.62;73.96;98209.00;1637192;87;25685;-61
2022/08/17 23:50:48;;;;;;;16.93;14.93;;;;;;;22.55;75.01;98209.20;1637270;87;25630;-61
2022/08/17 23:53:14;;;;;;;17.92;15.32;;;;;;;22.49;74.42;98211.42;1637393;87;25630;-60
2022/08/17 23:55:40;;;;;;;17.92;14.83;;;;;;;22.44;74.65;98214.83;1637312;87;27446;-60
2022/08/17 23:58:07;;;;;;;18.82;16.30;;;;;;;22.45;74.26;98219.80;1636924;87;25997;-61
